createdAt,value
2018-11-27T00:02:07.011Z,100152.17
2018-11-27T00:07:11.705Z,100151.56
2018-11-27T00:12:16.321Z,100159.63
2018-11-27T00:17:21.393Z,100156.96
2018-11-27T00:22:26.226Z,100154.42
2018-11-27T00:27:33.698Z,100156.67
2018-11-27T00:32:39.128Z,100165.63
2018-11-27T00:43:18.795Z,100167.96
2018-11-27T00:48:23.363Z,100166.60
2018-11-27T00:53:28.729Z,100171.76
2018-11-27T00:58:33.259Z,100192.76
2018-11-27T01:03:37.902Z,100190.13
2018-11-27T01:08:42.892Z,100197.89
2018-11-27T01:13:47.709Z,100203.55
2018-11-27T01:18:52.682Z,100197.31
2018-11-27T01:23:59.538Z,100200.53
2018-11-27T01:29:05.431Z,100206.36
2018-11-27T01:34:11.068Z,100201.89
2018-11-27T01:39:21.199Z,100212.67
2018-11-27T01:44:26.843Z,100215.54
2018-11-27T01:49:32.491Z,100222.68
2018-11-27T01:54:36.867Z,100215.15
2018-11-27T01:59:42.306Z,100211.40
2018-11-27T02:04:48.510Z,100214.96
2018-11-27T02:09:53.256Z,100215.73
2018-11-27T02:14:57.761Z,100214.86
2018-11-27T02:20:02.478Z,100216.56
2018-11-27T02:25:10.656Z,100223.75
2018-11-27T02:30:16.579Z,100227.20
2018-11-27T02:35:23.475Z,100240.23
2018-11-27T02:40:27.935Z,100240.84
2018-11-27T02:45:32.450Z,100248.53
2018-11-27T02:50:37.030Z,100252.75
2018-11-27T02:55:41.510Z,100256.92
2018-11-27T03:00:46.110Z,100257.50
2018-11-27T03:05:50.926Z,100254.88
2018-11-27T03:10:55.808Z,100261.62
2018-11-27T03:16:01.415Z,100256.48
2018-11-27T03:21:06.803Z,100254.11
2018-11-27T03:26:11.300Z,100253.75
2018-11-27T03:31:15.897Z,100258.07
2018-11-27T03:36:20.552Z,100255.68
2018-11-27T03:41:25.692Z,100258.36
2018-11-27T03:46:43.578Z,100262.23
2018-11-27T03:51:48.368Z,100269.71
2018-11-27T03:56:52.922Z,100278.55
2018-11-27T04:01:57.790Z,100280.50
2018-11-27T04:07:03.116Z,100286.27
2018-11-27T04:12:07.681Z,100287.29
2018-11-27T04:17:12.315Z,100294.22
2018-11-27T04:22:17.154Z,100296.11
2018-11-27T04:27:21.591Z,100300.46
2018-11-27T04:32:26.265Z,100306.02
2018-11-27T04:37:30.903Z,100307.57
2018-11-27T04:42:35.631Z,100310.02
2018-11-27T04:47:40.139Z,100304.27
2018-11-27T04:52:44.825Z,100308.47
2018-11-27T04:57:54.371Z,100302.26
2018-11-27T05:02:59.873Z,100313.19
2018-11-27T05:08:04.325Z,100310.65
2018-11-27T05:13:08.862Z,100319.45
2018-11-27T05:18:13.206Z,100321.55
2018-11-27T05:23:17.542Z,100323.37
2018-11-27T05:28:22.188Z,100329.39
2018-11-27T05:33:26.813Z,100334.56
2018-11-27T05:38:31.629Z,100341.34
2018-11-27T05:43:36.083Z,100344.12
2018-11-27T05:48:40.914Z,100348.64
2018-11-27T05:53:45.694Z,100347.75
2018-11-27T05:58:50.532Z,100359.34
2018-11-27T06:03:55.456Z,100376.34
2018-11-27T06:08:59.976Z,100387.80
2018-11-27T06:14:05.897Z,100386.61
2018-11-27T06:19:10.914Z,100387.51
2018-11-27T06:24:16.227Z,100397.83
2018-11-27T06:29:26.723Z,100397.01
2018-11-27T06:34:31.652Z,100407.70
2018-11-27T06:39:36.232Z,100419.41
2018-11-27T06:44:41.114Z,100421.54
2018-11-27T06:49:45.588Z,100434.26
2018-11-27T06:54:51.912Z,100437.59
2018-11-27T06:59:58.332Z,100439.48
2018-11-27T07:05:02.799Z,100459.45
2018-11-27T07:10:25.661Z,100469.42
2018-11-27T07:15:30.281Z,100474.89
2018-11-27T07:20:57.111Z,100483.02
2018-11-27T07:26:01.547Z,100487.52
2018-11-27T07:31:06.112Z,100493.47
2018-11-27T07:36:10.427Z,100493.14
2018-11-27T07:41:14.984Z,100499.84
2018-11-27T07:46:19.367Z,100507.32
2018-11-27T07:51:24.024Z,100519.97
2018-11-27T07:56:28.692Z,100532.56
2018-11-27T08:01:35.067Z,100545.98
2018-11-27T08:06:40.187Z,100549.66
2018-11-27T08:11:44.860Z,100556.38
2018-11-27T08:16:49.265Z,100569.22
2018-11-27T08:21:53.813Z,100572.14
2018-11-27T08:26:58.289Z,100580.97
2018-11-27T08:32:02.878Z,100584.16
2018-11-27T08:37:07.442Z,100588.41
2018-11-27T08:42:11.925Z,100586.88
2018-11-27T08:47:16.454Z,100590.99
2018-11-27T08:52:20.990Z,100606.70
2018-11-27T08:57:25.388Z,100614.86
2018-11-27T09:02:30.003Z,100610.00
2018-11-27T09:07:34.423Z,100603.02
2018-11-27T09:12:38.853Z,100621.86
2018-11-27T09:17:44.926Z,100621.46
2018-11-27T09:22:49.476Z,100625.77
2018-11-27T09:27:59.244Z,100627.88
2018-11-27T09:33:03.911Z,100641.28
2018-11-27T09:38:09.090Z,100651.78
2018-11-27T09:43:13.589Z,100654.42
2018-11-27T09:48:18.418Z,100653.95
2018-11-27T09:53:22.883Z,100655.48
2018-11-27T09:58:27.638Z,100651.94
2018-11-27T10:03:32.396Z,100653.89
2018-11-27T10:08:37.131Z,100651.01
2018-11-27T10:13:41.640Z,100656.59
2018-11-27T10:18:51.013Z,100662.13
2018-11-27T10:23:55.441Z,100665.19
2018-11-27T10:28:59.901Z,100667.74
2018-11-27T10:34:05.956Z,100664.17
2018-11-27T10:39:10.293Z,100670.34
2018-11-27T10:44:14.833Z,100669.09
2018-11-27T10:49:21.113Z,100672.55
2018-11-27T10:54:25.549Z,100675.92
2018-11-27T10:59:29.914Z,100687.89
2018-11-27T11:04:35.893Z,100702.74
2018-11-27T11:09:42.017Z,100694.12
2018-11-27T11:14:46.686Z,100688.40
2018-11-27T11:19:51.113Z,100693.64
2018-11-27T11:24:55.510Z,100691.88
2018-11-27T11:30:12.080Z,100703.40
2018-11-27T11:35:17.504Z,100705.45
2018-11-27T11:40:23.988Z,100707.46
2018-11-27T11:45:29.200Z,100708.32
2018-11-27T11:50:35.151Z,100711.99
2018-11-27T11:55:40.344Z,100717.45
2018-11-27T12:00:56.248Z,100718.84
2018-11-27T12:06:02.055Z,100726.27
2018-11-27T12:11:06.476Z,100726.58
2018-11-27T12:16:11.858Z,100729.05
2018-11-27T12:21:18.308Z,100720.88
2018-11-27T12:26:26.609Z,100730.91
2018-11-27T12:31:31.327Z,100741.09
2018-11-27T12:36:35.728Z,100738.50
2018-11-27T12:41:40.177Z,100753.05
2018-11-27T12:46:45.490Z,100748.80
2018-11-27T12:51:51.084Z,100756.76
2018-11-27T12:56:55.740Z,100770.59
2018-11-27T13:02:01.112Z,100766.58
2018-11-27T13:07:07.060Z,100772.75
2018-11-27T13:12:11.814Z,100768.59
2018-11-27T13:17:16.384Z,100768.63
2018-11-27T13:22:21.420Z,100769.59
2018-11-27T13:27:25.736Z,100779.41
2018-11-27T13:32:30.825Z,100781.33
2018-11-27T13:37:35.169Z,100789.02
2018-11-27T13:42:39.915Z,100801.73
2018-11-27T13:47:44.813Z,100804.09
2018-11-27T13:52:49.126Z,100797.98
2018-11-27T13:57:53.435Z,100791.22
2018-11-27T14:08:13.904Z,100797.84
2018-11-27T14:13:19.211Z,100798.91
2018-11-27T14:18:24.025Z,100801.99
2018-11-27T14:23:28.406Z,100809.84
2018-11-27T14:28:32.763Z,100814.48
2018-11-27T14:33:37.145Z,100813.44
2018-11-27T14:38:41.769Z,100817.54
2018-11-27T14:43:46.093Z,100824.00
2018-11-27T14:48:50.445Z,100827.19
2018-11-27T14:53:54.687Z,100825.66
2018-11-27T14:58:59.224Z,100825.27
2018-11-27T15:04:03.961Z,100831.62
2018-11-27T15:09:10.282Z,100829.11
2018-11-27T15:14:14.606Z,100827.92
2018-11-27T15:19:28.210Z,100839.61
2018-11-27T15:24:32.767Z,100850.75
2018-11-27T15:29:37.357Z,100848.95
2018-11-27T15:34:42.121Z,100854.98
2018-11-27T15:39:46.969Z,100859.03
2018-11-27T15:44:51.460Z,100850.98
2018-11-27T15:49:56.016Z,100867.20
2018-11-27T15:55:01.775Z,100868.33
2018-11-27T16:00:16.135Z,100876.17
2018-11-27T16:05:20.651Z,100876.66
2018-11-27T16:10:25.190Z,100885.42
2018-11-27T16:15:29.823Z,100886.24
2018-11-27T16:20:34.358Z,100890.08
2018-11-27T16:25:38.903Z,100892.19
2018-11-27T16:30:43.238Z,100897.23
2018-11-27T16:35:47.575Z,100904.98
2018-11-27T16:40:52.086Z,100910.52
2018-11-27T16:45:56.393Z,100908.21
2018-11-27T16:51:00.897Z,100913.44
2018-11-27T16:56:06.414Z,100915.05
2018-11-27T17:01:12.339Z,100924.78
2018-11-27T17:06:18.169Z,100930.12
2018-11-27T17:11:24.005Z,100926.83
2018-11-27T17:16:28.780Z,100928.73
2018-11-27T17:21:33.627Z,100923.30
2018-11-27T17:26:40.563Z,100930.55
2018-11-27T17:31:45.318Z,100939.91
2018-11-27T17:36:50.072Z,100941.50
2018-11-27T17:41:54.966Z,100949.25
2018-11-27T17:46:59.300Z,100952.08
2018-11-27T17:52:04.030Z,100959.72
2018-11-27T17:57:08.693Z,100965.77
2018-11-27T18:02:13.180Z,100956.10
2018-11-27T18:07:17.784Z,100965.56
2018-11-27T18:12:22.244Z,100965.45
2018-11-27T18:17:26.886Z,100963.64
2018-11-27T18:22:31.562Z,100972.52
2018-11-27T18:27:41.361Z,100972.80
2018-11-27T18:32:45.854Z,100968.39
2018-11-27T18:37:51.614Z,100976.92
2018-11-27T18:42:56.157Z,100982.47
2018-11-27T18:48:02.265Z,100980.34
2018-11-27T18:53:07.075Z,100982.95
2018-11-27T18:58:11.567Z,100984.27
2018-11-27T19:03:16.733Z,100979.34
2018-11-27T19:08:25.384Z,100983.05
2018-11-27T19:13:29.914Z,100982.84
2018-11-27T19:18:34.674Z,100981.44
2018-11-27T19:23:39.170Z,100988.66
2018-11-27T19:28:44.126Z,100990.58
2018-11-27T19:33:49.040Z,100999.58
2018-11-27T19:38:53.690Z,101022.09
2018-11-27T19:43:58.051Z,101041.16
2018-11-27T19:49:02.702Z,101051.81
2018-11-27T19:54:07.842Z,101066.08
2018-11-27T19:59:12.328Z,101073.47
2018-11-27T20:04:17.071Z,101081.48
2018-11-27T20:09:22.118Z,101082.92
2018-11-27T20:14:26.907Z,101074.18
2018-11-27T20:19:31.759Z,101073.19
2018-11-27T20:24:36.592Z,101078.78
2018-11-27T20:29:41.370Z,101076.95
2018-11-27T20:34:46.345Z,101081.67
2018-11-27T20:39:55.886Z,101092.43
2018-11-27T20:45:00.713Z,101089.30
2018-11-27T20:50:12.014Z,101089.50
2018-11-27T20:55:11.632Z,101093.63
2018-11-27T21:00:21.709Z,101098.41
2018-11-27T21:05:26.389Z,101096.80
2018-11-27T21:10:40.154Z,101099.92
2018-11-27T21:15:45.357Z,101116.38
2018-11-27T21:20:49.935Z,101124.53
2018-11-27T21:25:56.470Z,101112.73
2018-11-27T21:30:59.708Z,101110.28
2018-11-27T21:36:04.827Z,101105.66
2018-11-27T21:41:09.322Z,101103.68
2018-11-27T21:46:14.007Z,101115.11
2018-11-27T21:51:19.400Z,101115.74
2018-11-27T21:56:24.074Z,101123.50
2018-11-27T22:01:29.255Z,101128.28
2018-11-27T22:06:33.922Z,101131.97
2018-11-27T22:11:38.421Z,101139.99
2018-11-27T22:16:42.719Z,101149.73
2018-11-27T22:21:47.188Z,101152.25
2018-11-27T22:26:51.885Z,101142.20
2018-11-27T22:31:56.425Z,101146.36
2018-11-27T22:37:00.964Z,101142.17
2018-11-27T22:42:05.611Z,101145.65
2018-11-27T22:47:19.413Z,101148.77
2018-11-27T22:52:24.108Z,101141.00
2018-11-27T22:57:28.813Z,101145.70
2018-11-27T23:02:33.491Z,101142.37
2018-11-27T23:07:41.988Z,101139.84
2018-11-27T23:12:46.611Z,101141.57
2018-11-27T23:18:00.329Z,101133.88
2018-11-27T23:23:05.676Z,101143.08
2018-11-27T23:28:29.268Z,101140.70
2018-11-27T23:33:34.051Z,101143.45
2018-11-27T23:38:38.526Z,101139.09
2018-11-27T23:43:43.095Z,101140.79
2018-11-27T23:48:48.114Z,101133.56
2018-11-27T23:53:52.541Z,101137.59
2018-11-27T23:58:57.127Z,101136.10
